Time;durP1;ratioP1;P1;durP2;ratioP2;P2;SDS_P1;SDS_P2;PMS_P1;PMS_P2;Temp;Humidity;BMP_temperature;BMP_pressure;BME280_temperature;BME280_humidity;BME280_pressure;Samples;Min_cycle;Max_cycle;Signal;HPM_P1;HPM_P2
2022/08/18 00:00:33;;;;;;;12.45;11.45;;;25.30;99.90;;;;;;4177244;28;20216;-72
2022/08/18 00:02:36;;;;;;;13.07;11.98;;;25.30;99.90;;;;;;4177337;28;20224;-72
2022/08/18 00:04:39;;;;;;;12.50;11.50;;;25.30;99.90;;;;;;4176976;28;20240;-72
2022/08/18 00:06:42;;;;;;;12.02;11.02;;;25.30;99.90;;;;;;4176766;28;20204;-72
2022/08/18 00:08:44;;;;;;;12.27;11.27;;;25.30;99.90;;;;;;4180059;28;20208;-72
2022/08/18 00:10:46;;;;;;;12.40;11.40;;;25.20;99.90;;;;;;4180666;28;20212;-72
2022/08/18 00:12:49;;;;;;;11.85;10.88;;;25.30;99.90;;;;;;4180469;28;20216;-72
2022/08/18 00:14:52;;;;;;;12.35;11.35;;;25.20;99.90;;;;;;4180008;28;20318;-72
2022/08/18 00:16:56;;;;;;;11.93;10.93;;;25.20;99.90;;;;;;4179710;28;20235;-72
2022/08/18 00:18:59;;;;;;;12.13;11.10;;;25.30;99.90;;;;;;4180266;28;20659;-72
2022/08/18 00:21:01;;;;;;;12.52;11.52;;;25.20;99.90;;;;;;4180035;28;20233;-72
2022/08/18 00:23:04;;;;;;;12.48;11.48;;;25.30;99.90;;;;;;4180560;28;20356;-72
2022/08/18 00:25:09;;;;;;;12.55;11.43;;;25.20;99.90;;;;;;4180146;28;20212;-72
2022/08/18 00:27:11;;;;;;;11.75;10.85;;;25.20;99.90;;;;;;4179966;28;20220;-72
2022/08/18 00:29:13;;;;;;;11.95;10.95;;;25.20;99.90;;;;;;4175216;28;20262;-72
2022/08/18 00:31:16;;;;;;;11.15;10.15;;;25.20;99.90;;;;;;4173433;28;20659;-72
2022/08/18 00:33:19;;;;;;;12.23;11.23;;;25.20;99.90;;;;;;4178682;28;20258;-72
2022/08/18 00:35:25;;;;;;;11.57;10.63;;;25.20;99.90;;;;;;4179226;28;20219;-72
2022/08/18 00:37:28;;;;;;;12.23;11.23;;;25.20;99.90;;;;;;4179553;28;20239;-72
2022/08/18 00:39:32;;;;;;;12.93;11.73;;;25.20;99.90;;;;;;4179953;28;20216;-72
2022/08/18 00:41:35;;;;;;;12.82;11.63;;;25.20;99.90;;;;;;4179607;28;20227;-72
2022/08/18 00:43:41;;;;;;;12.85;11.65;;;25.20;99.90;;;;;;4179982;28;20722;-72
2022/08/18 00:45:44;;;;;;;11.95;11.02;;;25.20;99.90;;;;;;4180119;28;20220;-72
2022/08/18 00:47:46;;;;;;;11.80;10.77;;;25.20;99.90;;;;;;4179801;28;20216;-72
2022/08/18 00:49:53;;;;;;;11.90;10.90;;;25.20;99.90;;;;;;4179761;28;20284;-72
2022/08/18 00:51:56;;;;;;;12.63;11.45;;;25.20;99.90;;;;;;4179922;28;20219;-72
2022/08/18 00:54:03;;;;;;;12.35;11.35;;;25.20;99.90;;;;;;4179629;28;20216;-72
2022/08/18 00:56:10;;;;;;;11.55;10.57;;;25.20;99.90;;;;;;4167292;28;20216;-72
2022/08/18 00:58:18;;;;;;;12.10;11.10;;;25.20;99.90;;;;;;4179563;28;20235;-73
2022/08/18 01:00:21;;;;;;;11.57;10.63;;;25.20;99.90;;;;;;4179653;28;20207;-72
2022/08/18 01:02:27;;;;;;;11.45;10.55;;;25.10;99.90;;;;;;4179097;28;20215;-72
2022/08/18 01:04:33;;;;;;;11.18;10.27;;;25.10;99.90;;;;;;4179212;28;20326;-72
2022/08/18 01:06:42;;;;;;;11.32;10.43;;;25.20;99.90;;;;;;4179021;28;20273;-72
2022/08/18 01:08:44;;;;;;;11.77;10.82;;;25.10;99.90;;;;;;4179554;28;20241;-73
2022/08/18 01:10:48;;;;;;;11.32;10.43;;;25.10;99.90;;;;;;4179164;28;20277;-72
2022/08/18 01:12:53;;;;;;;11.95;10.95;;;25.20;99.90;;;;;;4179151;28;20216;-72
2022/08/18 01:14:56;;;;;;;11.90;10.90;;;25.10;99.90;;;;;;4179549;28;20572;-72
2022/08/18 01:21:52;;;;;;;10.60;9.80;;;25.10;99.90;;;;;;4146039;28;20269;-72
2022/08/18 01:23:57;;;;;;;11.68;10.73;;;25.20;99.90;;;;;;4176360;28;20244;-72
2022/08/18 01:25:58;;;;;;;11.57;10.57;;;25.10;99.90;;;;;;4179319;28;20219;-73
2022/08/18 01:28:02;;;;;;;12.00;11.00;;;25.10;99.90;;;;;;4178300;28;20262;-72
2022/08/18 01:30:08;;;;;;;11.80;10.70;;;25.10;99.90;;;;;;4177655;28;20289;-72
2022/08/18 01:32:16;;;;;;;11.77;10.77;;;25.10;99.90;;;;;;4177486;28;20258;-72
2022/08/18 01:34:20;;;;;;;11.82;10.73;;;25.10;99.90;;;;;;4179351;28;20211;-72
2022/08/18 01:36:22;;;;;;;12.15;11.15;;;25.10;99.90;;;;;;4178780;28;20321;-72
2022/08/18 01:38:25;;;;;;;11.43;10.45;;;25.10;99.90;;;;;;4178560;28;20239;-73
2022/08/18 01:40:30;;;;;;;11.50;10.50;;;25.10;99.90;;;;;;4177298;28;20265;-73
2022/08/18 01:42:33;;;;;;;11.52;10.55;;;25.10;99.90;;;;;;4177566;28;20219;-73
2022/08/18 01:44:35;;;;;;;10.73;9.90;;;25.10;99.90;;;;;;4177375;28;20273;-72
2022/08/18 01:46:40;;;;;;;10.50;9.70;;;25.10;99.90;;;;;;4177390;28;20796;-72
2022/08/18 01:48:42;;;;;;;10.55;9.68;;;25.10;99.90;;;;;;4177526;28;20750;-72
2022/08/18 01:50:48;;;;;;;11.15;10.18;;;25.10;99.90;;;;;;4177316;28;20215;-72
2022/08/18 01:52:52;;;;;;;11.60;10.60;;;25.10;99.90;;;;;;4178007;28;20939;-72
2022/08/18 01:54:55;;;;;;;12.23;11.23;;;25.10;99.90;;;;;;4171682;28;20216;-72
2022/08/18 01:56:59;;;;;;;11.57;10.63;;;25.10;99.90;;;;;;4177336;28;20223;-72
2022/08/18 01:59:01;;;;;;;11.23;10.25;;;25.10;99.90;;;;;;4176494;28;20286;-72
2022/08/18 02:01:04;;;;;;;12.23;11.05;;;25.10;99.90;;;;;;4177528;28;20220;-72
2022/08/18 02:03:11;;;;;;;11.70;10.65;;;25.10;99.90;;;;;;4177289;28;20286;-72
2022/08/18 02:05:18;;;;;;;12.65;11.65;;;25.10;99.90;;;;;;4144945;28;20209;-72
2022/08/18 02:07:21;;;;;;;13.00;12.00;;;25.10;99.90;;;;;;4143975;28;20213;-72
2022/08/18 02:09:23;;;;;;;12.98;11.88;;;25.10;99.90;;;;;;4143458;28;20225;-72
2022/08/18 02:11:25;;;;;;;12.98;11.98;;;25.10;99.90;;;;;;4144353;28;20268;-72
2022/08/18 02:13:29;;;;;;;12.32;11.20;;;25.10;99.90;;;;;;4143910;28;20217;-72
2022/08/18 02:15:31;;;;;;;12.52;11.43;;;25.10;99.90;;;;;;4143570;28;20232;-73
2022/08/18 02:17:38;;;;;;;11.82;10.82;;;25.10;99.90;;;;;;4143884;28;20267;-73
2022/08/18 02:19:42;;;;;;;12.30;11.20;;;25.10;99.90;;;;;;4142220;28;20229;-73
2022/08/18 02:21:44;;;;;;;12.05;11.05;;;25.10;99.90;;;;;;4143872;28;20248;-72
2022/08/18 02:23:48;;;;;;;12.55;11.45;;;25.10;99.90;;;;;;4144055;28;20229;-72
2022/08/18 02:25:51;;;;;;;11.27;10.27;;;25.10;99.90;;;;;;4144552;28;20228;-72
2022/08/18 02:27:53;;;;;;;11.30;10.40;;;25.10;99.90;;;;;;4143991;28;20328;-72
2022/08/18 02:29:59;;;;;;;11.82;10.82;;;25.10;99.90;;;;;;4142121;28;20267;-72
2022/08/18 02:32:02;;;;;;;12.80;11.70;;;25.10;99.90;;;;;;4143844;28;20736;-72
2022/08/18 02:34:04;;;;;;;13.07;11.88;;;25.10;99.90;;;;;;4144671;28;20619;-72
2022/08/18 02:36:08;;;;;;;11.77;10.77;;;25.10;99.90;;;;;;4143955;28;20851;-73
2022/08/18 02:38:10;;;;;;;12.38;11.38;;;25.10;99.90;;;;;;4143796;28;20295;-72
2022/08/18 02:40:13;;;;;;;11.75;10.75;;;25.10;99.90;;;;;;4143981;28;20221;-73
2022/08/18 02:42:15;;;;;;;11.88;10.90;;;25.10;99.90;;;;;;4143789;28;20376;-73
2022/08/18 02:44:18;;;;;;;12.48;11.35;;;25.10;99.90;;;;;;4139099;28;20221;-72
2022/08/18 02:46:21;;;;;;;11.75;10.75;;;25.10;99.90;;;;;;4143761;28;20209;-72
2022/08/18 02:48:25;;;;;;;13.23;12.13;;;25.10;99.90;;;;;;4143248;28;20264;-72
2022/08/18 02:50:27;;;;;;;11.77;10.77;;;25.10;99.90;;;;;;4143837;28;20336;-72
2022/08/18 02:52:31;;;;;;;11.98;10.98;;;25.10;99.90;;;;;;4144246;28;20213;-72
2022/08/18 02:54:34;;;;;;;11.82;10.82;;;25.10;99.90;;;;;;4145635;28;20267;-73
2022/08/18 02:56:36;;;;;;;12.35;11.32;;;25.10;99.90;;;;;;4143457;28;20209;-73
2022/08/18 02:58:38;;;;;;;11.55;10.50;;;25.10;99.90;;;;;;4143548;28;20302;-73
2022/08/18 03:00:41;;;;;;;11.40;10.40;;;25.00;99.90;;;;;;4143754;28;20712;-73
2022/08/18 03:02:47;;;;;;;11.45;10.55;;;25.10;99.90;;;;;;4143972;28;20213;-72
2022/08/18 03:04:50;;;;;;;11.98;10.98;;;25.10;99.90;;;;;;4170143;28;20300;-72
2022/08/18 03:06:52;;;;;;;11.93;10.90;;;25.10;99.90;;;;;;4175298;28;20253;-72
2022/08/18 03:08:55;;;;;;;13.35;12.15;;;25.10;99.90;;;;;;4176474;28;20637;-72
2022/08/18 03:10:58;;;;;;;12.88;11.68;;;25.00;99.90;;;;;;4176464;28;20223;-72
2022/08/18 03:13:00;;;;;;;13.02;11.93;;;25.00;99.90;;;;;;4176432;28;20712;-72
2022/08/18 03:15:03;;;;;;;13.27;12.18;;;25.10;99.90;;;;;;4176249;28;20599;-72
2022/08/18 03:17:07;;;;;;;12.77;11.68;;;25.00;99.90;;;;;;4176207;28;20632;-72
2022/08/18 03:19:15;;;;;;;12.90;11.73;;;25.10;99.90;;;;;;4176080;28;20232;-72
2022/08/18 03:21:21;;;;;;;12.52;11.43;;;25.00;99.90;;;;;;4176390;28;20280;-72
2022/08/18 03:23:23;;;;;;;12.60;11.50;;;25.10;99.90;;;;;;4175264;28;20253;-72
2022/08/18 03:25:26;;;;;;;12.38;11.35;;;25.00;99.90;;;;;;4176047;28;20957;-72
2022/08/18 03:27:28;;;;;;;12.40;11.30;;;25.00;99.90;;;;;;4176230;28;20220;-72
2022/08/18 03:29:30;;;;;;;12.52;11.43;;;25.00;99.90;;;;;;4175522;28;20621;-73
2022/08/18 03:31:33;;;;;;;12.35;11.35;;;25.00;99.90;;;;;;4176245;28;20633;-73
2022/08/18 03:33:36;;;;;;;12.68;11.63;;;25.00;99.90;;;;;;4176312;28;20223;-73
2022/08/18 03:35:40;;;;;;;12.23;11.13;;;25.00;99.90;;;;;;4176250;28;20627;-73
2022/08/18 03:37:43;;;;;;;11.63;10.63;;;25.00;99.90;;;;;;4176291;28;20220;-73
2022/08/18 03:39:45;;;;;;;11.93;10.93;;;25.00;99.90;;;;;;4176011;28;20281;-73
2022/08/18 03:41:47;;;;;;;12.95;11.85;;;25.00;99.90;;;;;;4177760;28;20312;-73
2022/08/18 03:43:50;;;;;;;12.25;11.25;;;25.00;99.90;;;;;;4179429;28;20270;-73
2022/08/18 03:45:52;;;;;;;11.18;10.35;;;25.00;99.90;;;;;;4179868;28;20660;-73
2022/08/18 03:47:55;;;;;;;12.48;11.48;;;25.00;99.90;;;;;;4179741;28;20281;-73
2022/08/18 03:49:58;;;;;;;12.70;11.45;;;25.00;99.90;;;;;;4178948;28;20739;-73
2022/08/18 03:52:02;;;;;;;12.00;10.90;;;24.90;99.90;;;;;;4179593;28;20219;-73
2022/08/18 03:54:05;;;;;;;11.40;10.45;;;25.00;99.90;;;;;;4179611;28;20313;-73
2022/08/18 03:56:14;;;;;;;12.20;11.20;;;25.00;99.90;;;;;;4179031;28;20467;-73
2022/08/18 03:58:17;;;;;;;12.32;11.32;;;25.00;99.90;;;;;;4178749;28;20245;-73
2022/08/18 04:00:19;;;;;;;10.93;10.05;;;25.00;99.90;;;;;;4179350;28;20297;-73
2022/08/18 04:02:21;;;;;;;12.25;11.13;;;24.90;99.90;;;;;;4178934;28;20277;-73
2022/08/18 04:04:26;;;;;;;12.90;11.80;;;25.00;99.90;;;;;;4178846;28;20228;-73
2022/08/18 04:06:30;;;;;;;12.52;11.52;;;25.00;99.90;;;;;;4178741;28;20223;-73
2022/08/18 04:08:34;;;;;;;12.07;11.07;;;25.00;99.90;;;;;;4177217;28;20273;-73
2022/08/18 04:10:36;;;;;;;12.25;11.25;;;25.00;99.90;;;;;;4179304;28;20212;-73
2022/08/18 04:12:41;;;;;;;11.40;10.40;;;25.00;99.90;;;;;;4179508;28;20266;-73
2022/08/18 04:14:46;;;;;;;12.23;11.23;;;25.00;99.90;;;;;;4176018;28;20211;-73
2022/08/18 04:16:49;;;;;;;11.98;10.98;;;24.90;99.90;;;;;;4179266;28;20261;-73
2022/08/18 04:18:51;;;;;;;11.05;10.15;;;24.90;99.90;;;;;;4179075;28;21682;-73
2022/08/18 04:20:53;;;;;;;11.32;10.25;;;24.90;99.90;;;;;;4178943;28;20241;-73
2022/08/18 04:22:56;;;;;;;11.18;10.30;;;25.00;99.90;;;;;;4179235;28;20253;-73
2022/08/18 04:25:00;;;;;;;11.68;10.65;;;24.90;99.90;;;;;;4178392;28;20220;-73
2022/08/18 04:27:04;;;;;;;11.30;10.40;;;25.00;99.90;;;;;;4177924;28;20265;-73
2022/08/18 04:29:08;;;;;;;12.27;11.25;;;25.00;99.90;;;;;;4178444;28;20217;-73
2022/08/18 04:31:13;;;;;;;11.98;10.98;;;25.00;99.90;;;;;;4173216;28;20262;-72
2022/08/18 04:33:15;;;;;;;11.05;10.15;;;25.00;99.90;;;;;;4176952;28;20266;-73
2022/08/18 04:35:18;;;;;;;11.38;10.38;;;25.00;99.90;;;;;;4178618;28;20212;-73
2022/08/18 04:37:20;;;;;;;12.07;11.07;;;24.90;99.90;;;;;;4178710;28;20215;-73
2022/08/18 04:39:24;;;;;;;11.68;10.68;;;25.00;99.90;;;;;;4178730;28;20243;-73
2022/08/18 04:41:28;;;;;;;11.60;10.65;;;24.90;99.90;;;;;;4178513;28;20228;-73
2022/08/18 04:43:31;;;;;;;10.88;9.88;;;25.00;99.90;;;;;;4178467;28;20208;-73
2022/08/18 04:45:34;;;;;;;11.48;10.48;;;24.90;99.90;;;;;;4178395;28;20220;-72
2022/08/18 04:47:40;;;;;;;11.27;10.30;;;24.90;99.90;;;;;;4177517;28;20243;-73
2022/08/18 04:49:43;;;;;;;12.32;11.27;;;24.90;99.90;;;;;;4178153;28;20212;-73
2022/08/18 04:53:43;;;;;;;11.18;10.18;;;25.00;99.90;;;;;;4178564;28;20224;-73
2022/08/18 04:54:08;;;;;;;11.75;10.77;;;25.00;99.90;;;;;;4177856;28;20265;-73
2022/08/18 04:56:16;;;;;;;11.38;10.38;;;24.90;99.90;;;;;;4177806;28;20204;-73
2022/08/18 04:58:21;;;;;;;11.93;10.93;;;25.00;99.90;;;;;;4178421;28;20605;-73
2022/08/18 05:00:23;;;;;;;12.05;11.05;;;24.90;99.90;;;;;;4178000;28;20232;-73
2022/08/18 05:02:25;;;;;;;11.02;10.13;;;24.90;99.90;;;;;;4178111;28;20273;-73
2022/08/18 05:04:29;;;;;;;11.90;10.90;;;24.90;99.90;;;;;;4177768;28;20852;-73
2022/08/18 05:06:31;;;;;;;12.65;11.45;;;24.90;99.90;;;;;;4178096;28;20580;-73
2022/08/18 05:08:34;;;;;;;11.95;10.85;;;24.90;99.90;;;;;;4178025;28;20644;-73
2022/08/18 05:10:36;;;;;;;11.90;10.98;;;24.90;99.90;;;;;;4177948;28;20271;-73
2022/08/18 05:12:40;;;;;;;11.85;10.95;;;24.90;99.90;;;;;;4177955;28;20216;-73
2022/08/18 05:14:45;;;;;;;11.93;10.73;;;24.90;99.90;;;;;;4178085;28;20220;-73
2022/08/18 05:16:48;;;;;;;11.55;10.55;;;24.90;99.90;;;;;;4177928;28;20212;-73
2022/08/18 05:18:52;;;;;;;11.18;10.27;;;24.90;99.90;;;;;;4177884;28;20208;-73
2022/08/18 05:20:56;;;;;;;10.82;10.02;;;24.90;99.90;;;;;;4177510;28;20293;-73
2022/08/18 05:22:58;;;;;;;11.20;10.27;;;24.90;99.90;;;;;;4176384;28;20208;-73
2022/08/18 05:25:01;;;;;;;10.82;9.90;;;24.90;99.90;;;;;;4176015;28;20208;-73
2022/08/18 05:27:06;;;;;;;10.85;9.95;;;24.90;99.90;;;;;;4177031;28;20270;-73
2022/08/18 05:29:08;;;;;;;11.25;10.35;;;24.90;99.90;;;;;;4177518;28;20215;-73
2022/08/18 05:31:16;;;;;;;11.00;10.00;;;24.90;99.90;;;;;;4177007;28;20612;-73
2022/08/18 05:33:18;;;;;;;11.45;10.48;;;24.90;99.90;;;;;;4176236;28;20203;-73
2022/08/18 05:35:24;;;;;;;11.20;10.30;;;24.90;99.90;;;;;;4177696;28;20680;-73
2022/08/18 05:37:35;;;;;;;12.23;11.05;;;24.90;99.90;;;;;;4177482;28;20254;-73
2022/08/18 05:39:54;;;;;;;11.32;10.23;;;24.90;99.90;;;;;;4176911;28;20696;-73
2022/08/18 05:42:05;;;;;;;11.93;10.93;;;24.90;99.90;;;;;;4177007;28;20274;-73
2022/08/18 05:44:09;;;;;;;11.55;10.55;;;24.90;99.90;;;;;;4177770;28;21676;-73
2022/08/18 05:46:13;;;;;;;11.43;10.48;;;24.90;99.90;;;;;;4176586;28;20208;-73
2022/08/18 05:48:15;;;;;;;11.00;10.07;;;24.90;99.90;;;;;;4175935;28;20729;-73
2022/08/18 05:50:20;;;;;;;10.93;9.95;;;24.90;99.90;;;;;;4176905;28;20291;-73
2022/08/18 05:52:30;;;;;;;11.60;10.55;;;24.90;99.90;;;;;;4176548;28;20665;-73
2022/08/18 05:57:02;;;;;;;10.27;9.45;;;24.90;99.90;;;;;;4172114;28;20200;-73
2022/08/18 05:59:05;;;;;;;11.18;10.13;;;24.90;99.90;;;;;;4176394;28;20219;-73
2022/08/18 06:01:14;;;;;;;11.32;10.27;;;24.90;99.90;;;;;;4177376;28;20578;-73
2022/08/18 06:03:21;;;;;;;10.88;9.98;;;24.90;99.90;;;;;;4176694;28;20352;-73
2022/08/18 06:05:28;;;;;;;11.35;10.35;;;24.90;99.90;;;;;;4177114;28;20226;-73
2022/08/18 06:07:40;;;;;;;11.38;10.40;;;24.90;99.90;;;;;;4177895;28;20369;-73
2022/08/18 06:09:49;;;;;;;11.45;10.35;;;24.90;99.90;;;;;;4176909;28;20223;-73
2022/08/18 06:12:07;;;;;;;11.48;10.43;;;24.90;99.90;;;;;;4176971;28;20258;-73
2022/08/18 06:14:12;;;;;;;11.02;10.10;;;24.90;99.90;;;;;;4176139;28;20270;-73
2022/08/18 06:16:29;;;;;;;11.20;10.30;;;24.90;99.90;;;;;;4175384;28;20360;-73
2022/08/18 06:18:45;;;;;;;11.35;10.32;;;24.90;99.90;;;;;;4176022;28;20219;-73
2022/08/18 06:21:11;;;;;;;10.77;9.77;;;24.90;99.90;;;;;;4170602;28;20297;-73
2022/08/18 06:23:26;;;;;;;10.73;9.88;;;24.90;99.90;;;;;;4174407;28;20251;-73
2022/08/18 06:25:36;;;;;;;11.80;10.80;;;24.90;99.90;;;;;;4176914;28;20224;-73
2022/08/18 06:27:50;;;;;;;11.93;10.88;;;24.90;99.90;;;;;;4176912;28;20219;-73
2022/08/18 06:30:04;;;;;;;11.77;10.70;;;24.90;99.90;;;;;;4174203;28;20269;-73
2022/08/18 06:32:15;;;;;;;11.52;10.43;;;24.90;99.90;;;;;;4176552;28;20292;-73
2022/08/18 06:34:26;;;;;;;10.43;9.52;;;24.90;99.90;;;;;;4175668;28;20664;-72
2022/08/18 06:36:37;;;;;;;10.40;9.50;;;24.90;99.90;;;;;;4175522;28;20212;-73
2022/08/18 06:38:50;;;;;;;10.30;9.40;;;24.90;99.90;;;;;;4176814;28;20281;-73
2022/08/18 06:41:01;;;;;;;46.80;40.30;;;24.90;99.90;;;;;;4174224;28;20285;-73
2022/08/18 06:43:06;;;;;;;50.83;43.22;;;24.60;99.90;;;;;;4173894;28;20262;-72
2022/08/18 06:45:12;;;;;;;50.55;43.63;;;23.90;99.90;;;;;;4174339;28;20598;-72
2022/08/18 06:47:27;;;;;;;49.25;40.67;;;23.60;99.90;;;;;;4174738;28;20208;-72
2022/08/18 06:49:39;;;;;;;50.22;41.17;;;23.20;99.90;;;;;;4178622;28;20215;-72
2022/08/18 06:51:41;;;;;;;50.97;41.05;;;23.00;99.90;;;;;;4177919;28;20288;-72
2022/08/18 06:53:54;;;;;;;48.13;40.80;;;22.80;99.90;;;;;;4176966;28;20278;-72
2022/08/18 06:55:56;;;;;;;47.83;41.13;;;22.70;99.90;;;;;;4176925;28;20278;-72
2022/08/18 06:58:01;;;;;;;49.17;39.35;;;22.60;99.90;;;;;;4170194;28;20727;-71
2022/08/18 07:00:10;;;;;;;49.40;38.65;;;22.30;99.90;;;;;;4174515;28;20224;-71
2022/08/18 07:02:20;;;;;;;47.55;38.30;;;22.10;99.90;;;;;;4177705;28;20211;-71
2022/08/18 07:04:42;;;;;;;54.15;39.53;;;21.90;99.90;;;;;;4176002;28;20231;-71
2022/08/18 07:06:44;;;;;;;48.33;36.55;;;21.90;99.90;;;;;;4175317;28;20215;-72
2022/08/18 07:08:47;;;;;;;52.13;37.70;;;22.10;99.90;;;;;;4172220;28;20257;-71
2022/08/18 07:10:51;;;;;;;44.60;36.17;;;22.10;99.90;;;;;;4174976;28;20723;-72
2022/08/18 07:13:07;;;;;;;41.72;33.00;;;22.10;99.90;;;;;;4166323;28;20726;-72
2022/08/18 07:15:12;;;;;;;42.83;34.10;;;22.30;99.90;;;;;;4170783;28;20220;-72
2022/08/18 07:17:22;;;;;;;39.58;32.72;;;22.30;99.90;;;;;;4172291;28;20266;-72
2022/08/18 07:19:29;;;;;;;36.33;28.65;;;22.50;99.90;;;;;;4169264;28;20306;-72
2022/08/18 07:21:34;;;;;;;33.97;27.63;;;22.60;99.90;;;;;;4172956;28;20290;-72
2022/08/18 07:23:39;;;;;;;33.58;25.88;;;22.70;99.90;;;;;;4170660;28;20276;-72
2022/08/18 07:25:45;;;;;;;31.38;23.30;;;22.70;99.90;;;;;;4173071;28;20652;-71
2022/08/18 07:27:49;;;;;;;23.05;17.98;;;22.60;99.90;;;;;;4169933;28;20697;-72
2022/08/18 07:30:05;;;;;;;17.92;16.00;;;22.60;99.90;;;;;;4167647;28;20215;-74
2022/08/18 07:32:12;;;;;;;20.77;16.75;;;22.70;99.90;;;;;;4170602;28;20264;-73
2022/08/18 07:34:20;;;;;;;19.45;17.15;;;22.70;99.90;;;;;;4169224;28;20246;-73
2022/08/18 07:36:28;;;;;;;20.35;17.52;;;22.90;99.90;;;;;;4171007;28;20249;-72
2022/08/18 07:38:33;;;;;;;19.98;17.27;;;22.90;99.90;;;;;;4169838;28;20270;-72
2022/08/18 07:40:40;;;;;;;23.80;17.60;;;23.00;99.90;;;;;;4167729;28;20211;-73
2022/08/18 07:42:48;;;;;;;25.65;19.55;;;22.90;99.90;;;;;;4168934;28;20211;-75
2022/08/18 07:44:58;;;;;;;20.98;17.42;;;22.80;99.90;;;;;;4168073;28;20373;-75
2022/08/18 07:47:04;;;;;;;21.52;18.77;;;22.80;99.90;;;;;;4169094;28;20207;-74
2022/08/18 07:49:06;;;;;;;24.17;18.83;;;22.80;99.90;;;;;;4173274;28;20257;-73
2022/08/18 07:51:18;;;;;;;23.60;19.48;;;22.80;99.90;;;;;;4173985;28;20254;-73
2022/08/18 07:53:34;;;;;;;21.63;18.98;;;22.80;99.90;;;;;;4173833;28;20215;-72
2022/08/18 07:55:36;;;;;;;20.25;15.77;;;22.80;99.90;;;;;;4171959;28;20211;-73
2022/08/18 07:57:47;;;;;;;19.45;16.05;;;22.90;99.90;;;;;;4170553;28;20278;-74
2022/08/18 07:59:57;;;;;;;18.65;15.63;;;22.90;99.90;;;;;;4170826;28;20265;-73
2022/08/18 08:02:17;;;;;;;22.95;16.05;;;22.90;99.90;;;;;;4173248;28;20240;-73
2022/08/18 08:04:28;;;;;;;17.00;15.05;;;22.90;99.90;;;;;;4175186;28;20293;-73
2022/08/18 08:06:38;;;;;;;16.52;14.80;;;22.80;99.90;;;;;;4170207;28;20710;-73
2022/08/18 08:08:43;;;;;;;18.80;16.35;;;22.90;99.90;;;;;;4166509;28;20265;-73
2022/08/18 08:10:57;;;;;;;16.67;14.98;;;22.90;99.90;;;;;;4170461;28;20208;-73
2022/08/18 08:13:17;;;;;;;19.55;13.80;;;22.90;99.90;;;;;;4168449;28;20212;-74
2022/08/18 08:15:25;;;;;;;15.55;13.77;;;22.90;99.90;;;;;;4167967;28;20215;-73
2022/08/18 08:17:33;;;;;;;15.40;13.70;;;22.90;99.90;;;;;;4172028;28;20277;-74
2022/08/18 08:19:56;;;;;;;19.27;16.08;;;23.00;99.90;;;;;;4171917;28;20292;-74
2022/08/18 08:22:05;;;;;;;22.60;17.80;;;23.10;99.90;;;;;;4165533;28;20283;-75
2022/08/18 08:24:18;;;;;;;20.42;17.05;;;23.00;99.90;;;;;;4174434;28;20296;-71
2022/08/18 08:26:28;;;;;;;17.73;15.88;;;23.10;99.90;;;;;;4173893;28;20659;-72
2022/08/18 08:28:41;;;;;;;20.08;16.20;;;23.20;99.90;;;;;;4175124;28;20273;-71
2022/08/18 08:30:54;;;;;;;16.33;14.70;;;23.10;99.90;;;;;;4173616;28;20219;-74
2022/08/18 08:33:07;;;;;;;19.00;15.68;;;23.20;99.90;;;;;;4172435;28;20292;-73
2022/08/18 08:35:13;;;;;;;19.85;15.73;;;23.20;99.90;;;;;;4175890;28;20216;-71
2022/08/18 08:37:27;;;;;;;18.27;15.93;;;23.30;99.90;;;;;;4164779;28;20286;-72
2022/08/18 08:39:37;;;;;;;19.52;15.85;;;23.20;99.90;;;;;;4171942;28;20223;-75
2022/08/18 08:41:50;;;;;;;22.02;16.95;;;23.30;99.90;;;;;;4175251;28;20235;-73
2022/08/18 08:44:05;;;;;;;20.58;16.70;;;23.40;99.90;;;;;;4175797;28;20652;-72
2022/08/18 08:46:12;;;;;;;22.75;16.30;;;23.40;99.90;;;;;;4174811;28;20269;-72
2022/08/18 08:48:20;;;;;;;19.25;15.90;;;23.50;99.90;;;;;;4170562;28;20223;-72
2022/08/18 08:50:26;;;;;;;20.33;16.70;;;23.50;99.90;;;;;;4173926;28;20219;-74
2022/08/18 08:52:36;;;;;;;17.30;15.32;;;23.60;99.90;;;;;;4173170;28;20602;-73
2022/08/18 08:54:44;;;;;;;15.93;14.32;;;23.60;99.90;;;;;;4173908;28;20215;-72
2022/08/18 08:56:50;;;;;;;16.27;14.40;;;23.60;99.90;;;;;;4171707;28;20215;-72
2022/08/18 08:58:57;;;;;;;19.40;14.98;;;23.70;99.90;;;;;;4173175;28;20223;-71
2022/08/18 09:01:01;;;;;;;18.48;14.57;;;23.70;99.90;;;;;;4171259;28;20723;-71
2022/08/18 09:03:24;;;;;;;19.35;14.48;;;23.80;99.90;;;;;;4173334;28;20235;-72
2022/08/18 09:05:29;;;;;;;17.25;13.55;;;23.90;99.90;;;;;;4174034;28;20281;-72
2022/08/18 09:07:50;;;;;;;20.33;13.93;;;24.00;99.90;;;;;;4173479;28;20215;-71
2022/08/18 09:10:19;;;;;;;14.68;13.18;;;24.10;99.90;;;;;;4175149;28;20349;-71
2022/08/18 09:12:44;;;;;;;16.55;14.25;;;24.00;99.90;;;;;;4175527;28;20245;-71
2022/08/18 09:15:13;;;;;;;21.75;16.23;;;23.90;99.90;;;;;;4173806;28;20284;-71
2022/08/18 09:17:43;;;;;;;18.83;15.02;;;23.40;99.90;;;;;;4173969;28;20228;-72
2022/08/18 09:20:04;;;;;;;17.85;15.52;;;23.20;99.90;;;;;;4167733;28;20213;-72
2022/08/18 09:22:18;;;;;;;17.35;14.63;;;23.10;99.90;;;;;;4176318;28;20235;-72
2022/08/18 09:24:26;;;;;;;20.55;16.58;;;23.00;99.90;;;;;;4174206;28;20207;-72
2022/08/18 09:26:40;;;;;;;23.67;16.25;;;22.90;99.90;;;;;;4174877;28;20934;-72
2022/08/18 09:28:56;;;;;;;19.63;14.90;;;22.80;99.90;;;;;;4171745;28;20281;-71
2022/08/18 09:31:19;;;;;;;18.17;13.30;;;23.00;99.90;;;;;;4171705;28;20211;-71
2022/08/18 09:33:48;;;;;;;18.20;15.23;;;23.10;99.90;;;;;;4174701;28;20261;-72
2022/08/18 09:36:13;;;;;;;14.98;13.48;;;23.10;99.90;;;;;;4173622;28;20220;-71
2022/08/18 09:43:15;;;;;;;14.45;10.65;;;23.50;99.90;;;;;;4172601;28;20215;-72
2022/08/18 09:45:51;;;;;;;16.10;12.20;;;23.80;99.90;;;;;;4174479;28;20653;-72
2022/08/18 09:48:16;;;;;;;12.65;11.18;;;23.70;99.90;;;;;;4172430;28;21007;-72
2022/08/18 09:50:53;;;;;;;18.38;12.88;;;23.60;99.90;;;;;;4174311;28;20212;-71
2022/08/18 09:52:58;;;;;;;14.82;12.40;;;23.60;99.90;;;;;;4176619;28;20205;-72
2022/08/18 09:55:02;;;;;;;14.13;10.60;;;23.60;99.90;;;;;;4177478;28;20212;-71
2022/08/18 09:57:23;;;;;;;11.48;10.23;;;23.60;99.90;;;;;;4163801;28;20316;-71
2022/08/18 09:59:53;;;;;;;13.80;10.70;;;23.60;99.90;;;;;;4173534;28;20212;-71
2022/08/18 10:01:55;;;;;;;10.55;9.45;;;23.70;99.90;;;;;;4169743;28;20281;-72
2022/08/18 10:04:18;;;;;;;13.77;10.77;;;23.60;99.90;;;;;;4170786;28;20224;-73
2022/08/18 10:06:21;;;;;;;11.60;9.38;;;23.50;99.90;;;;;;4173640;28;20216;-73
2022/08/18 10:08:52;;;;;;;13.52;9.30;;;23.50;99.90;;;;;;4172149;28;20302;-71
2022/08/18 10:11:02;;;;;;;12.75;9.25;;;23.50;99.90;;;;;;4173569;28;20285;-71
2022/08/18 10:13:15;;;;;;;9.98;8.70;;;23.60;99.90;;;;;;4177450;28;20281;-71
2022/08/18 10:15:32;;;;;;;11.27;9.63;;;23.60;99.90;;;;;;4170148;28;20334;-71
2022/08/18 10:17:53;;;;;;;16.17;11.93;;;23.60;99.90;;;;;;4179747;28;20326;-72
2022/08/18 10:20:04;;;;;;;13.48;12.30;;;23.70;99.90;;;;;;4170568;28;20225;-72
2022/08/18 10:22:09;;;;;;;11.82;10.32;;;23.70;99.90;;;;;;4170904;28;20330;-71
2022/08/18 10:24:18;;;;;;;10.65;9.63;;;23.80;99.90;;;;;;4172598;28;20258;-72
2022/08/18 10:27:08;;;;;;;11.00;9.90;;;23.80;99.90;;;;;;4171836;28;20223;-72
2022/08/18 10:29:46;;;;;;;13.45;10.00;;;23.90;99.90;;;;;;4164776;28;20211;-72
2022/08/18 10:32:43;;;;;;;10.70;9.63;;;23.90;99.90;;;;;;4166913;28;20692;-71
2022/08/18 10:34:47;;;;;;;12.00;9.48;;;24.00;99.90;;;;;;4168089;28;20285;-72
2022/08/18 10:36:52;;;;;;;15.27;11.45;;;24.00;99.90;;;;;;4170884;28;20273;-72
2022/08/18 10:38:55;;;;;;;11.27;10.10;;;24.00;99.90;;;;;;4173339;28;20224;-71
2022/08/18 10:41:03;;;;;;;13.00;11.43;;;24.00;99.90;;;;;;4175173;28;20235;-72
2022/08/18 10:43:11;;;;;;;12.05;10.82;;;24.10;99.90;;;;;;4180158;28;20321;-72
2022/08/18 10:45:19;;;;;;;12.73;11.20;;;24.10;99.90;;;;;;4166178;28;20364;-72
2022/08/18 10:47:26;;;;;;;12.00;10.90;;;24.00;99.90;;;;;;4169049;28;20304;-72
2022/08/18 10:49:31;;;;;;;12.13;10.85;;;23.90;99.90;;;;;;4169749;28;20220;-72
2022/08/18 10:52:05;;;;;;;10.95;9.95;;;24.00;99.90;;;;;;4169108;28;20223;-72
2022/08/18 10:54:17;;;;;;;10.82;9.60;;;23.90;99.90;;;;;;4169400;28;20289;-72
2022/08/18 10:56:30;;;;;;;10.75;9.75;;;23.90;99.90;;;;;;4172270;28;20257;-72
2022/08/18 10:59:01;;;;;;;13.32;9.75;;;24.10;99.90;;;;;;4166205;28;20211;-72
2022/08/18 11:01:21;;;;;;;11.30;9.85;;;24.20;99.90;;;;;;4160042;28;20220;-72